sensor_id;sensor_type;location;lat;lon;timestamp;temperature;humidity
3678;DHT22;1855;50.934;6.958;2023-03-08T00:01:56;0.80;99.90
3678;DHT22;1855;50.934;6.958;2023-03-08T00:04:23;0.80;99.90
3678;DHT22;1855;50.934;6.958;2023-03-08T00:06:51;0.80;99.90
3678;DHT22;1855;50.934;6.958;2023-03-08T00:09:17;0.90;99.90
3678;DHT22;1855;50.934;6.958;2023-03-08T00:11:44;0.90;99.90
3678;DHT22;1855;50.934;6.958;2023-03-08T00:14:11;0.90;99.90
3678;DHT22;1855;50.934;6.958;2023-03-08T00:16:38;0.90;99.90
3678;DHT22;1855;50.934;6.958;2023-03-08T00:19:04;0.90;99.90
3678;DHT22;1855;50.934;6.958;2023-03-08T00:21:31;1.00;99.90
3678;DHT22;1855;50.934;6.958;2023-03-08T00:23:59;0.90;99.90
3678;DHT22;1855;50.934;6.958;2023-03-08T00:26:26;1.00;99.90
3678;DHT22;1855;50.934;6.958;2023-03-08T00:28:52;1.00;99.90
3678;DHT22;1855;50.934;6.958;2023-03-08T00:31:19;1.00;99.90
3678;DHT22;1855;50.934;6.958;2023-03-08T00:33:46;0.90;99.90
3678;DHT22;1855;50.934;6.958;2023-03-08T00:36:15;0.90;99.90
3678;DHT22;1855;50.934;6.958;2023-03-08T00:38:42;1.00;99.90
3678;DHT22;1855;50.934;6.958;2023-03-08T00:41:10;1.00;99.90
3678;DHT22;1855;50.934;6.958;2023-03-08T00:43:37;1.00;99.90
3678;DHT22;1855;50.934;6.958;2023-03-08T00:46:06;1.00;99.90
3678;DHT22;1855;50.934;6.958;2023-03-08T00:48:33;1.00;99.90
3678;DHT22;1855;50.934;6.958;2023-03-08T00:51:00;1.00;99.90
3678;DHT22;1855;50.934;6.958;2023-03-08T00:53:26;1.00;99.90
3678;DHT22;1855;50.934;6.958;2023-03-08T00:55:55;1.00;99.90
3678;DHT22;1855;50.934;6.958;2023-03-08T00:58:25;1.00;99.90
3678;DHT22;1855;50.934;6.958;2023-03-08T01:00:52;1.00;99.90
3678;DHT22;1855;50.934;6.958;2023-03-08T01:03:20;1.10;99.90
3678;DHT22;1855;50.934;6.958;2023-03-08T01:05:49;1.00;99.90
3678;DHT22;1855;50.934;6.958;2023-03-08T01:08:16;1.00;99.90
3678;DHT22;1855;50.934;6.958;2023-03-08T01:10:46;1.00;99.90
3678;DHT22;1855;50.934;6.958;2023-03-08T01:13:13;1.00;99.90
3678;DHT22;1855;50.934;6.958;2023-03-08T01:15:41;1.00;99.90
3678;DHT22;1855;50.934;6.958;2023-03-08T01:18:08;1.00;99.90
3678;DHT22;1855;50.934;6.958;2023-03-08T01:20:35;1.00;99.90
3678;DHT22;1855;50.934;6.958;2023-03-08T01:23:02;1.00;99.90
3678;DHT22;1855;50.934;6.958;2023-03-08T01:25:29;1.00;99.90
3678;DHT22;1855;50.934;6.958;2023-03-08T01:27:56;1.00;99.90
3678;DHT22;1855;50.934;6.958;2023-03-08T01:30:23;1.00;99.90
3678;DHT22;1855;50.934;6.958;2023-03-08T01:32:51;1.00;99.90
3678;DHT22;1855;50.934;6.958;2023-03-08T01:35:18;1.00;99.90
3678;DHT22;1855;50.934;6.958;2023-03-08T01:37:45;1.00;99.90
3678;DHT22;1855;50.934;6.958;2023-03-08T01:40:13;1.10;99.90
3678;DHT22;1855;50.934;6.958;2023-03-08T01:42:40;1.10;99.90
3678;DHT22;1855;50.934;6.958;2023-03-08T01:48:09;1.00;99.90
3678;DHT22;1855;50.934;6.958;2023-03-08T01:50:36;1.00;99.90
3678;DHT22;1855;50.934;6.958;2023-03-08T01:53:03;1.00;99.90
3678;DHT22;1855;50.934;6.958;2023-03-08T01:55:30;1.00;99.90
3678;DHT22;1855;50.934;6.958;2023-03-08T01:57:56;1.00;99.90
3678;DHT22;1855;50.934;6.958;2023-03-08T02:00:24;1.00;99.90
3678;DHT22;1855;50.934;6.958;2023-03-08T02:02:54;1.00;99.90
3678;DHT22;1855;50.934;6.958;2023-03-08T02:05:24;1.00;99.90
3678;DHT22;1855;50.934;6.958;2023-03-08T02:07:51;1.00;99.90
3678;DHT22;1855;50.934;6.958;2023-03-08T02:10:18;1.00;99.90
3678;DHT22;1855;50.934;6.958;2023-03-08T02:12:46;1.00;99.90
3678;DHT22;1855;50.934;6.958;2023-03-08T02:15:16;1.00;99.90
3678;DHT22;1855;50.934;6.958;2023-03-08T02:17:44;1.00;99.90
3678;DHT22;1855;50.934;6.958;2023-03-08T02:20:15;1.00;99.90
3678;DHT22;1855;50.934;6.958;2023-03-08T02:22:44;1.00;99.90
3678;DHT22;1855;50.934;6.958;2023-03-08T02:25:13;1.00;99.90
3678;DHT22;1855;50.934;6.958;2023-03-08T02:27:40;1.00;99.90
3678;DHT22;1855;50.934;6.958;2023-03-08T02:30:09;1.00;99.90
3678;DHT22;1855;50.934;6.958;2023-03-08T02:32:36;1.00;99.90
3678;DHT22;1855;50.934;6.958;2023-03-08T02:35:04;1.00;99.90
3678;DHT22;1855;50.934;6.958;2023-03-08T02:37:31;1.00;99.90
3678;DHT22;1855;50.934;6.958;2023-03-08T02:39:59;1.00;99.90
3678;DHT22;1855;50.934;6.958;2023-03-08T02:42:26;0.90;99.90
3678;DHT22;1855;50.934;6.958;2023-03-08T02:44:53;0.90;99.90
3678;DHT22;1855;50.934;6.958;2023-03-08T02:47:19;0.90;99.90
3678;DHT22;1855;50.934;6.958;2023-03-08T02:49:46;0.90;99.90
3678;DHT22;1855;50.934;6.958;2023-03-08T02:52:13;0.90;99.90
3678;DHT22;1855;50.934;6.958;2023-03-08T02:54:40;0.90;99.90
3678;DHT22;1855;50.934;6.958;2023-03-08T02:57:08;0.90;99.90
3678;DHT22;1855;50.934;6.958;2023-03-08T02:59:34;0.90;99.90
3678;DHT22;1855;50.934;6.958;2023-03-08T03:02:01;0.90;99.90
3678;DHT22;1855;50.934;6.958;2023-03-08T03:04:28;0.80;99.90
3678;DHT22;1855;50.934;6.958;2023-03-08T03:06:55;0.90;99.90
3678;DHT22;1855;50.934;6.958;2023-03-08T03:09:22;0.90;99.90
3678;DHT22;1855;50.934;6.958;2023-03-08T03:11:49;0.90;99.90
3678;DHT22;1855;50.934;6.958;2023-03-08T03:14:17;0.80;99.90
3678;DHT22;1855;50.934;6.958;2023-03-08T03:16:44;0.80;99.90
3678;DHT22;1855;50.934;6.958;2023-03-08T03:19:11;0.80;99.90
3678;DHT22;1855;50.934;6.958;2023-03-08T03:21:39;0.80;99.90
3678;DHT22;1855;50.934;6.958;2023-03-08T03:24:06;0.80;99.90
3678;DHT22;1855;50.934;6.958;2023-03-08T03:26:33;0.80;99.90
3678;DHT22;1855;50.934;6.958;2023-03-08T03:29:00;0.80;99.90
3678;DHT22;1855;50.934;6.958;2023-03-08T03:31:28;0.80;99.90
3678;DHT22;1855;50.934;6.958;2023-03-08T03:33:56;0.80;99.90
3678;DHT22;1855;50.934;6.958;2023-03-08T03:36:23;0.70;99.90
3678;DHT22;1855;50.934;6.958;2023-03-08T03:38:50;0.80;99.90
3678;DHT22;1855;50.934;6.958;2023-03-08T03:41:18;0.80;99.90
3678;DHT22;1855;50.934;6.958;2023-03-08T03:43:46;0.80;99.90
3678;DHT22;1855;50.934;6.958;2023-03-08T03:46:14;0.80;99.90
3678;DHT22;1855;50.934;6.958;2023-03-08T03:48:43;0.80;99.90
3678;DHT22;1855;50.934;6.958;2023-03-08T03:51:15;0.80;99.90
3678;DHT22;1855;50.934;6.958;2023-03-08T03:53:42;0.70;99.90
3678;DHT22;1855;50.934;6.958;2023-03-08T03:56:11;0.70;99.90
3678;DHT22;1855;50.934;6.958;2023-03-08T03:58:39;0.70;99.90
3678;DHT22;1855;50.934;6.958;2023-03-08T04:01:06;0.70;99.90
3678;DHT22;1855;50.934;6.958;2023-03-08T04:03:33;0.70;99.90
3678;DHT22;1855;50.934;6.958;2023-03-08T04:06:06;0.70;99.90
3678;DHT22;1855;50.934;6.958;2023-03-08T04:08:33;0.70;99.90
3678;DHT22;1855;50.934;6.958;2023-03-08T04:11:06;0.70;99.90
3678;DHT22;1855;50.934;6.958;2023-03-08T04:13:33;0.70;99.90
3678;DHT22;1855;50.934;6.958;2023-03-08T04:16:06;0.60;99.90
3678;DHT22;1855;50.934;6.958;2023-03-08T04:18:33;0.60;99.90
3678;DHT22;1855;50.934;6.958;2023-03-08T04:21:00;0.60;99.90
3678;DHT22;1855;50.934;6.958;2023-03-08T04:23:28;0.60;99.90
3678;DHT22;1855;50.934;6.958;2023-03-08T04:25:55;0.60;99.90
3678;DHT22;1855;50.934;6.958;2023-03-08T04:28:21;0.60;99.90
3678;DHT22;1855;50.934;6.958;2023-03-08T04:30:48;0.60;99.90
3678;DHT22;1855;50.934;6.958;2023-03-08T04:33:15;0.60;99.90
3678;DHT22;1855;50.934;6.958;2023-03-08T04:35:41;0.50;99.90
3678;DHT22;1855;50.934;6.958;2023-03-08T04:38:08;0.50;99.90
3678;DHT22;1855;50.934;6.958;2023-03-08T04:40:36;0.50;99.90
3678;DHT22;1855;50.934;6.958;2023-03-08T04:43:23;0.50;99.90
3678;DHT22;1855;50.934;6.958;2023-03-08T04:45:50;0.50;99.90
3678;DHT22;1855;50.934;6.958;2023-03-08T04:48:17;0.50;99.90
3678;DHT22;1855;50.934;6.958;2023-03-08T04:50:43;0.60;99.90
3678;DHT22;1855;50.934;6.958;2023-03-08T04:53:10;0.60;99.90
3678;DHT22;1855;50.934;6.958;2023-03-08T04:55:38;0.60;99.90
3678;DHT22;1855;50.934;6.958;2023-03-08T04:58:05;0.60;99.90
3678;DHT22;1855;50.934;6.958;2023-03-08T05:00:32;0.60;99.90
3678;DHT22;1855;50.934;6.958;2023-03-08T05:02:59;0.60;99.90
3678;DHT22;1855;50.934;6.958;2023-03-08T05:05:26;0.60;99.90
3678;DHT22;1855;50.934;6.958;2023-03-08T05:07:52;0.60;99.90
3678;DHT22;1855;50.934;6.958;2023-03-08T05:10:19;0.60;99.90
3678;DHT22;1855;50.934;6.958;2023-03-08T05:12:47;0.60;99.90
3678;DHT22;1855;50.934;6.958;2023-03-08T05:15:14;0.50;99.90
3678;DHT22;1855;50.934;6.958;2023-03-08T05:17:41;0.50;99.90
3678;DHT22;1855;50.934;6.958;2023-03-08T05:20:09;0.50;99.90
3678;DHT22;1855;50.934;6.958;2023-03-08T05:22:36;0.50;99.90
3678;DHT22;1855;50.934;6.958;2023-03-08T05:25:04;0.50;99.90
3678;DHT22;1855;50.934;6.958;2023-03-08T05:27:31;0.50;99.90
3678;DHT22;1855;50.934;6.958;2023-03-08T05:29:59;0.50;99.90
3678;DHT22;1855;50.934;6.958;2023-03-08T05:32:26;0.50;99.90
3678;DHT22;1855;50.934;6.958;2023-03-08T05:34:53;0.50;99.90
3678;DHT22;1855;50.934;6.958;2023-03-08T05:37:20;0.50;99.90
3678;DHT22;1855;50.934;6.958;2023-03-08T05:39:50;0.50;99.90
3678;DHT22;1855;50.934;6.958;2023-03-08T05:42:17;0.50;99.90
3678;DHT22;1855;50.934;6.958;2023-03-08T05:44:44;0.50;99.90
3678;DHT22;1855;50.934;6.958;2023-03-08T05:47:12;0.50;99.90
3678;DHT22;1855;50.934;6.958;2023-03-08T05:49:39;0.50;99.90
3678;DHT22;1855;50.934;6.958;2023-03-08T05:52:05;0.50;99.90
3678;DHT22;1855;50.934;6.958;2023-03-08T05:54:32;0.50;99.90
3678;DHT22;1855;50.934;6.958;2023-03-08T05:56:59;0.50;99.90
3678;DHT22;1855;50.934;6.958;2023-03-08T05:59:26;0.50;99.90
3678;DHT22;1855;50.934;6.958;2023-03-08T06:01:53;0.50;99.90
3678;DHT22;1855;50.934;6.958;2023-03-08T06:04:21;0.50;99.90
3678;DHT22;1855;50.934;6.958;2023-03-08T06:06:48;0.50;99.90
3678;DHT22;1855;50.934;6.958;2023-03-08T06:09:14;0.50;99.90
3678;DHT22;1855;50.934;6.958;2023-03-08T06:11:41;0.50;99.90
3678;DHT22;1855;50.934;6.958;2023-03-08T06:14:08;0.50;99.90
3678;DHT22;1855;50.934;6.958;2023-03-08T06:16:35;0.50;99.90
3678;DHT22;1855;50.934;6.958;2023-03-08T06:19:02;0.50;99.90
3678;DHT22;1855;50.934;6.958;2023-03-08T06:21:30;0.50;99.90
3678;DHT22;1855;50.934;6.958;2023-03-08T06:23:57;0.50;99.90
3678;DHT22;1855;50.934;6.958;2023-03-08T06:26:23;0.50;99.90
3678;DHT22;1855;50.934;6.958;2023-03-08T06:28:50;0.50;99.90
3678;DHT22;1855;50.934;6.958;2023-03-08T06:31:18;0.50;99.90
3678;DHT22;1855;50.934;6.958;2023-03-08T06:33:45;0.50;99.90
3678;DHT22;1855;50.934;6.958;2023-03-08T06:36:13;0.50;99.90
3678;DHT22;1855;50.934;6.958;2023-03-08T06:38:42;0.50;99.90
3678;DHT22;1855;50.934;6.958;2023-03-08T06:41:11;0.50;99.90
3678;DHT22;1855;50.934;6.958;2023-03-08T06:43:38;0.50;99.90
3678;DHT22;1855;50.934;6.958;2023-03-08T06:46:06;0.50;99.90
3678;DHT22;1855;50.934;6.958;2023-03-08T06:48:33;0.50;99.90
3678;DHT22;1855;50.934;6.958;2023-03-08T06:51:00;0.50;99.90
3678;DHT22;1855;50.934;6.958;2023-03-08T06:53:27;0.50;99.90
3678;DHT22;1855;50.934;6.958;2023-03-08T06:55:55;0.50;99.90
3678;DHT22;1855;50.934;6.958;2023-03-08T06:58:22;0.50;99.90
3678;DHT22;1855;50.934;6.958;2023-03-08T07:00:48;0.50;99.90
3678;DHT22;1855;50.934;6.958;2023-03-08T07:03:15;0.50;99.90
3678;DHT22;1855;50.934;6.958;2023-03-08T07:05:42;0.50;99.90
3678;DHT22;1855;50.934;6.958;2023-03-08T07:08:09;0.60;99.90
3678;DHT22;1855;50.934;6.958;2023-03-08T07:10:35;0.60;99.90
3678;DHT22;1855;50.934;6.958;2023-03-08T07:13:03;0.60;99.90
3678;DHT22;1855;50.934;6.958;2023-03-08T07:15:30;0.60;99.90
3678;DHT22;1855;50.934;6.958;2023-03-08T07:17:57;0.60;99.90
3678;DHT22;1855;50.934;6.958;2023-03-08T07:20:25;0.60;99.90
3678;DHT22;1855;50.934;6.958;2023-03-08T07:22:53;0.60;99.90
3678;DHT22;1855;50.934;6.958;2023-03-08T07:25:20;0.50;99.90
3678;DHT22;1855;50.934;6.958;2023-03-08T07:27:47;0.60;99.90
3678;DHT22;1855;50.934;6.958;2023-03-08T07:30:16;0.60;99.90
3678;DHT22;1855;50.934;6.958;2023-03-08T07:32:43;0.60;99.90
3678;DHT22;1855;50.934;6.958;2023-03-08T07:35:11;0.60;99.90
3678;DHT22;1855;50.934;6.958;2023-03-08T07:37:38;0.60;99.90
3678;DHT22;1855;50.934;6.958;2023-03-08T07:40:06;0.60;99.90
3678;DHT22;1855;50.934;6.958;2023-03-08T07:42:33;0.60;99.90
3678;DHT22;1855;50.934;6.958;2023-03-08T07:45:00;0.70;99.90
3678;DHT22;1855;50.934;6.958;2023-03-08T07:47:28;0.70;99.90
3678;DHT22;1855;50.934;6.958;2023-03-08T07:49:54;0.70;99.90
3678;DHT22;1855;50.934;6.958;2023-03-08T07:52:25;0.70;99.90
3678;DHT22;1855;50.934;6.958;2023-03-08T07:54:52;0.70;99.90
3678;DHT22;1855;50.934;6.958;2023-03-08T07:57:19;0.70;99.90
3678;DHT22;1855;50.934;6.958;2023-03-08T07:59:46;0.70;99.90
3678;DHT22;1855;50.934;6.958;2023-03-08T08:02:14;0.70;99.90
3678;DHT22;1855;50.934;6.958;2023-03-08T08:04:42;0.70;99.90
3678;DHT22;1855;50.934;6.958;2023-03-08T08:07:11;0.80;99.90
3678;DHT22;1855;50.934;6.958;2023-03-08T08:09:38;0.80;99.90
3678;DHT22;1855;50.934;6.958;2023-03-08T08:12:06;0.80;99.90
3678;DHT22;1855;50.934;6.958;2023-03-08T08:14:32;0.80;99.90
3678;DHT22;1855;50.934;6.958;2023-03-08T08:16:59;0.80;99.90
3678;DHT22;1855;50.934;6.958;2023-03-08T08:19:26;0.80;99.90
3678;DHT22;1855;50.934;6.958;2023-03-08T08:21:55;0.80;99.90
3678;DHT22;1855;50.934;6.958;2023-03-08T08:24:22;0.80;99.90
3678;DHT22;1855;50.934;6.958;2023-03-08T08:26:48;0.80;99.90
3678;DHT22;1855;50.934;6.958;2023-03-08T08:29:15;0.80;99.90
3678;DHT22;1855;50.934;6.958;2023-03-08T08:31:42;0.80;99.90
3678;DHT22;1855;50.934;6.958;2023-03-08T08:34:09;0.80;99.90
3678;DHT22;1855;50.934;6.958;2023-03-08T08:36:35;0.90;99.90
3678;DHT22;1855;50.934;6.958;2023-03-08T08:39:04;0.90;99.90
3678;DHT22;1855;50.934;6.958;2023-03-08T08:41:31;1.00;99.90
3678;DHT22;1855;50.934;6.958;2023-03-08T08:43:58;1.00;99.90
3678;DHT22;1855;50.934;6.958;2023-03-08T08:46:25;1.10;99.90
3678;DHT22;1855;50.934;6.958;2023-03-08T08:48:53;1.10;99.90
3678;DHT22;1855;50.934;6.958;2023-03-08T08:51:20;1.20;99.90
3678;DHT22;1855;50.934;6.958;2023-03-08T08:53:46;1.30;99.90
3678;DHT22;1855;50.934;6.958;2023-03-08T08:56:16;1.30;99.90
3678;DHT22;1855;50.934;6.958;2023-03-08T08:58:43;1.40;99.90
3678;DHT22;1855;50.934;6.958;2023-03-08T09:01:15;1.40;99.90
3678;DHT22;1855;50.934;6.958;2023-03-08T09:03:42;1.50;99.90
3678;DHT22;1855;50.934;6.958;2023-03-08T09:06:09;1.50;99.90
3678;DHT22;1855;50.934;6.958;2023-03-08T09:08:36;1.60;99.90
3678;DHT22;1855;50.934;6.958;2023-03-08T09:11:03;1.60;99.90
3678;DHT22;1855;50.934;6.958;2023-03-08T09:13:32;1.60;99.90
3678;DHT22;1855;50.934;6.958;2023-03-08T09:15:59;1.70;99.90
3678;DHT22;1855;50.934;6.958;2023-03-08T09:18:26;1.70;99.90
3678;DHT22;1855;50.934;6.958;2023-03-08T09:20:52;1.80;99.90
3678;DHT22;1855;50.934;6.958;2023-03-08T09:23:19;1.80;99.90
3678;DHT22;1855;50.934;6.958;2023-03-08T09:25:54;1.80;99.90
3678;DHT22;1855;50.934;6.958;2023-03-08T09:28:20;1.80;99.90
3678;DHT22;1855;50.934;6.958;2023-03-08T09:30:49;1.80;99.90
3678;DHT22;1855;50.934;6.958;2023-03-08T09:33:16;1.80;99.90
3678;DHT22;1855;50.934;6.958;2023-03-08T09:35:43;1.80;99.90
3678;DHT22;1855;50.934;6.958;2023-03-08T09:38:10;1.90;99.90
3678;DHT22;1855;50.934;6.958;2023-03-08T09:40:41;1.90;99.90
3678;DHT22;1855;50.934;6.958;2023-03-08T09:43:19;2.10;99.90
3678;DHT22;1855;50.934;6.958;2023-03-08T09:45:52;2.10;99.90
3678;DHT22;1855;50.934;6.958;2023-03-08T09:48:22;2.20;99.90
3678;DHT22;1855;50.934;6.958;2023-03-08T09:50:51;2.30;99.90
3678;DHT22;1855;50.934;6.958;2023-03-08T09:53:25;2.50;99.90
3678;DHT22;1855;50.934;6.958;2023-03-08T09:55:55;2.60;99.90
3678;DHT22;1855;50.934;6.958;2023-03-08T09:58:30;2.50;99.90
3678;DHT22;1855;50.934;6.958;2023-03-08T10:01:03;2.40;99.90
3678;DHT22;1855;50.934;6.958;2023-03-08T10:03:58;2.40;99.90
3678;DHT22;1855;50.934;6.958;2023-03-08T10:06:31;2.30;99.90
3678;DHT22;1855;50.934;6.958;2023-03-08T10:09:12;2.10;99.90
3678;DHT22;1855;50.934;6.958;2023-03-08T10:11:46;2.00;99.90
3678;DHT22;1855;50.934;6.958;2023-03-08T10:14:19;2.00;99.90
3678;DHT22;1855;50.934;6.958;2023-03-08T10:16:52;2.00;99.90
3678;DHT22;1855;50.934;6.958;2023-03-08T10:19:24;1.90;99.90
3678;DHT22;1855;50.934;6.958;2023-03-08T10:21:56;2.00;99.90
3678;DHT22;1855;50.934;6.958;2023-03-08T10:24:27;2.00;99.90
3678;DHT22;1855;50.934;6.958;2023-03-08T10:27:01;2.00;99.90
3678;DHT22;1855;50.934;6.958;2023-03-08T10:29:28;2.10;99.90
3678;DHT22;1855;50.934;6.958;2023-03-08T10:31:56;2.20;99.90
3678;DHT22;1855;50.934;6.958;2023-03-08T10:34:29;2.40;99.90
3678;DHT22;1855;50.934;6.958;2023-03-08T10:36:59;2.60;99.90
3678;DHT22;1855;50.934;6.958;2023-03-08T10:39:26;2.70;99.90
3678;DHT22;1855;50.934;6.958;2023-03-08T10:41:55;2.70;99.90
3678;DHT22;1855;50.934;6.958;2023-03-08T10:44:31;2.70;99.90
3678;DHT22;1855;50.934;6.958;2023-03-08T10:47:01;2.70;99.90
3678;DHT22;1855;50.934;6.958;2023-03-08T10:49:29;2.80;99.90
3678;DHT22;1855;50.934;6.958;2023-03-08T10:51:57;2.80;99.90
3678;DHT22;1855;50.934;6.958;2023-03-08T10:54:25;2.90;99.90
3678;DHT22;1855;50.934;6.958;2023-03-08T10:56:55;2.90;99.90
3678;DHT22;1855;50.934;6.958;2023-03-08T10:59:26;2.90;99.90
3678;DHT22;1855;50.934;6.958;2023-03-08T11:02:00;2.80;99.90
3678;DHT22;1855;50.934;6.958;2023-03-08T11:04:29;2.80;99.90
3678;DHT22;1855;50.934;6.958;2023-03-08T11:06:56;2.80;99.90
3678;DHT22;1855;50.934;6.958;2023-03-08T11:09:24;2.80;99.90
3678;DHT22;1855;50.934;6.958;2023-03-08T11:11:52;2.80;99.90
3678;DHT22;1855;50.934;6.958;2023-03-08T11:14:19;2.90;99.90
3678;DHT22;1855;50.934;6.958;2023-03-08T11:17:06;2.90;99.90
3678;DHT22;1855;50.934;6.958;2023-03-08T11:19:45;2.90;99.90
3678;DHT22;1855;50.934;6.958;2023-03-08T11:22:23;3.00;99.90
3678;DHT22;1855;50.934;6.958;2023-03-08T11:25:05;3.00;99.90
3678;DHT22;1855;50.934;6.958;2023-03-08T11:27:54;3.00;99.90
3678;DHT22;1855;50.934;6.958;2023-03-08T11:30:31;3.10;99.90
3678;DHT22;1855;50.934;6.958;2023-03-08T11:36:04;3.40;99.90
3678;DHT22;1855;50.934;6.958;2023-03-08T11:38:32;3.50;99.90
3678;DHT22;1855;50.934;6.958;2023-03-08T11:41:06;3.70;99.90
3678;DHT22;1855;50.934;6.958;2023-03-08T11:44:07;3.80;99.90
3678;DHT22;1855;50.934;6.958;2023-03-08T11:46:46;3.90;99.90
3678;DHT22;1855;50.934;6.958;2023-03-08T11:49:37;3.80;99.90
3678;DHT22;1855;50.934;6.958;2023-03-08T11:52:10;3.70;99.90
3678;DHT22;1855;50.934;6.958;2023-03-08T11:54:53;3.80;99.90
3678;DHT22;1855;50.934;6.958;2023-03-08T11:57:22;3.90;99.90
3678;DHT22;1855;50.934;6.958;2023-03-08T11:59:54;3.90;99.90
3678;DHT22;1855;50.934;6.958;2023-03-08T12:02:23;4.00;99.90
3678;DHT22;1855;50.934;6.958;2023-03-08T12:04:59;4.20;99.90
3678;DHT22;1855;50.934;6.958;2023-03-08T12:07:33;4.30;99.90
3678;DHT22;1855;50.934;6.958;2023-03-08T12:10:07;4.20;99.90
3678;DHT22;1855;50.934;6.958;2023-03-08T12:12:39;4.20;99.90
3678;DHT22;1855;50.934;6.958;2023-03-08T12:15:26;4.30;99.90
3678;DHT22;1855;50.934;6.958;2023-03-08T12:18:00;4.40;99.90
3678;DHT22;1855;50.934;6.958;2023-03-08T12:20:36;4.40;99.90
3678;DHT22;1855;50.934;6.958;2023-03-08T12:23:12;4.50;99.90
3678;DHT22;1855;50.934;6.958;2023-03-08T12:25:44;4.50;99.90
3678;DHT22;1855;50.934;6.958;2023-03-08T12:28:16;4.60;99.90
3678;DHT22;1855;50.934;6.958;2023-03-08T12:30:58;4.70;99.90
3678;DHT22;1855;50.934;6.958;2023-03-08T12:33:27;4.80;99.90
3678;DHT22;1855;50.934;6.958;2023-03-08T12:35:59;4.90;99.90
3678;DHT22;1855;50.934;6.958;2023-03-08T12:38:33;5.00;99.90
3678;DHT22;1855;50.934;6.958;2023-03-08T12:41:01;5.20;99.90
3678;DHT22;1855;50.934;6.958;2023-03-08T12:43:30;5.10;99.90
3678;DHT22;1855;50.934;6.958;2023-03-08T12:46:02;5.10;99.90
3678;DHT22;1855;50.934;6.958;2023-03-08T12:48:31;5.10;99.90
3678;DHT22;1855;50.934;6.958;2023-03-08T12:51:05;5.00;99.90
3678;DHT22;1855;50.934;6.958;2023-03-08T12:53:38;5.10;99.90
3678;DHT22;1855;50.934;6.958;2023-03-08T12:56:20;5.20;99.90
3678;DHT22;1855;50.934;6.958;2023-03-08T12:58:50;5.10;99.90
3678;DHT22;1855;50.934;6.958;2023-03-08T13:01:33;5.10;99.90
3678;DHT22;1855;50.934;6.958;2023-03-08T13:04:00;5.00;99.90
3678;DHT22;1855;50.934;6.958;2023-03-08T13:07:11;4.80;99.90
3678;DHT22;1855;50.934;6.958;2023-03-08T13:09:46;4.70;99.90
3678;DHT22;1855;50.934;6.958;2023-03-08T13:12:22;4.70;99.90
3678;DHT22;1855;50.934;6.958;2023-03-08T13:15:16;4.70;99.90
3678;DHT22;1855;50.934;6.958;2023-03-08T13:17:48;4.60;99.90
3678;DHT22;1855;50.934;6.958;2023-03-08T13:20:19;4.50;99.90
3678;DHT22;1855;50.934;6.958;2023-03-08T13:23:00;4.50;99.90
3678;DHT22;1855;50.934;6.958;2023-03-08T13:25:52;4.60;99.90
3678;DHT22;1855;50.934;6.958;2023-03-08T13:28:22;4.60;99.90
3678;DHT22;1855;50.934;6.958;2023-03-08T13:30:52;4.60;99.90
3678;DHT22;1855;50.934;6.958;2023-03-08T13:33:22;4.70;99.90
3678;DHT22;1855;50.934;6.958;2023-03-08T13:35:54;4.70;99.90
3678;DHT22;1855;50.934;6.958;2023-03-08T13:38:24;4.90;99.90
3678;DHT22;1855;50.934;6.958;2023-03-08T13:40:53;5.00;99.90
3678;DHT22;1855;50.934;6.958;2023-03-08T13:43:21;5.20;99.90
3678;DHT22;1855;50.934;6.958;2023-03-08T13:45:51;5.40;99.90
3678;DHT22;1855;50.934;6.958;2023-03-08T13:48:19;5.60;99.90
3678;DHT22;1855;50.934;6.958;2023-03-08T13:50:47;5.60;99.90
3678;DHT22;1855;50.934;6.958;2023-03-08T13:53:18;5.50;99.90
3678;DHT22;1855;50.934;6.958;2023-03-08T13:55:49;5.50;99.90
3678;DHT22;1855;50.934;6.958;2023-03-08T13:58:24;5.40;99.90
3678;DHT22;1855;50.934;6.958;2023-03-08T14:01:00;5.40;99.90
3678;DHT22;1855;50.934;6.958;2023-03-08T14:03:28;5.40;99.90
3678;DHT22;1855;50.934;6.958;2023-03-08T14:05:55;5.30;99.90
3678;DHT22;1855;50.934;6.958;2023-03-08T14:08:24;5.10;99.90
3678;DHT22;1855;50.934;6.958;2023-03-08T14:10:55;5.00;99.90
3678;DHT22;1855;50.934;6.958;2023-03-08T14:13:27;4.90;99.90
3678;DHT22;1855;50.934;6.958;2023-03-08T14:15:55;4.90;99.90
3678;DHT22;1855;50.934;6.958;2023-03-08T14:18:26;4.90;99.90
3678;DHT22;1855;50.934;6.958;2023-03-08T14:21:12;5.00;99.90
3678;DHT22;1855;50.934;6.958;2023-03-08T14:23:41;5.00;99.90
3678;DHT22;1855;50.934;6.958;2023-03-08T14:26:31;5.00;99.90
3678;DHT22;1855;50.934;6.958;2023-03-08T14:29:10;5.00;99.90
3678;DHT22;1855;50.934;6.958;2023-03-08T14:31:38;5.00;99.90
3678;DHT22;1855;50.934;6.958;2023-03-08T14:34:18;5.00;99.90
3678;DHT22;1855;50.934;6.958;2023-03-08T14:36:50;5.00;99.90
3678;DHT22;1855;50.934;6.958;2023-03-08T14:39:18;5.00;99.90
3678;DHT22;1855;50.934;6.958;2023-03-08T14:41:47;5.00;99.90
3678;DHT22;1855;50.934;6.958;2023-03-08T14:44:18;5.00;99.90
3678;DHT22;1855;50.934;6.958;2023-03-08T14:46:46;5.00;99.90
3678;DHT22;1855;50.934;6.958;2023-03-08T14:49:19;5.00;99.90
3678;DHT22;1855;50.934;6.958;2023-03-08T14:51:46;5.00;99.90
3678;DHT22;1855;50.934;6.958;2023-03-08T14:54:23;4.90;99.90
3678;DHT22;1855;50.934;6.958;2023-03-08T14:56:55;4.90;99.90
3678;DHT22;1855;50.934;6.958;2023-03-08T14:59:22;4.90;99.90
3678;DHT22;1855;50.934;6.958;2023-03-08T15:01:50;4.80;99.90
3678;DHT22;1855;50.934;6.958;2023-03-08T15:04:19;4.80;99.90
3678;DHT22;1855;50.934;6.958;2023-03-08T15:06:46;4.70;99.90
3678;DHT22;1855;50.934;6.958;2023-03-08T15:09:15;4.60;99.90
3678;DHT22;1855;50.934;6.958;2023-03-08T15:11:43;4.60;99.90
3678;DHT22;1855;50.934;6.958;2023-03-08T15:14:12;4.60;99.90
3678;DHT22;1855;50.934;6.958;2023-03-08T15:16:39;4.60;99.90
3678;DHT22;1855;50.934;6.958;2023-03-08T15:19:05;4.50;99.90
3678;DHT22;1855;50.934;6.958;2023-03-08T15:21:34;4.50;99.90
3678;DHT22;1855;50.934;6.958;2023-03-08T15:24:02;4.60;99.90
3678;DHT22;1855;50.934;6.958;2023-03-08T15:26:30;4.60;99.90
3678;DHT22;1855;50.934;6.958;2023-03-08T15:28:58;4.60;99.90
3678;DHT22;1855;50.934;6.958;2023-03-08T15:31:29;4.50;99.90
3678;DHT22;1855;50.934;6.958;2023-03-08T15:33:56;4.40;99.90
3678;DHT22;1855;50.934;6.958;2023-03-08T15:36:22;4.40;99.90
3678;DHT22;1855;50.934;6.958;2023-03-08T15:38:49;4.50;99.90
3678;DHT22;1855;50.934;6.958;2023-03-08T15:41:16;4.50;99.90
3678;DHT22;1855;50.934;6.958;2023-03-08T15:43:43;4.50;99.90
3678;DHT22;1855;50.934;6.958;2023-03-08T15:46:10;4.40;99.90
3678;DHT22;1855;50.934;6.958;2023-03-08T15:48:38;4.40;99.90
3678;DHT22;1855;50.934;6.958;2023-03-08T15:51:09;4.40;99.90
3678;DHT22;1855;50.934;6.958;2023-03-08T15:53:37;4.40;99.90
3678;DHT22;1855;50.934;6.958;2023-03-08T15:56:04;4.40;99.90
3678;DHT22;1855;50.934;6.958;2023-03-08T15:58:31;4.50;99.90
3678;DHT22;1855;50.934;6.958;2023-03-08T16:00:58;4.50;99.90
3678;DHT22;1855;50.934;6.958;2023-03-08T16:03:25;4.40;99.90
3678;DHT22;1855;50.934;6.958;2023-03-08T16:05:54;4.40;99.90
3678;DHT22;1855;50.934;6.958;2023-03-08T16:08:21;4.40;99.90
3678;DHT22;1855;50.934;6.958;2023-03-08T16:10:50;4.40;99.90
3678;DHT22;1855;50.934;6.958;2023-03-08T16:13:17;4.40;99.90
3678;DHT22;1855;50.934;6.958;2023-03-08T16:15:46;4.40;99.90
3678;DHT22;1855;50.934;6.958;2023-03-08T16:18:13;4.30;99.90
3678;DHT22;1855;50.934;6.958;2023-03-08T16:20:40;4.40;99.90
3678;DHT22;1855;50.934;6.958;2023-03-08T16:23:08;4.30;99.90
3678;DHT22;1855;50.934;6.958;2023-03-08T16:25:35;4.30;99.90
3678;DHT22;1855;50.934;6.958;2023-03-08T16:28:02;4.30;99.90
3678;DHT22;1855;50.934;6.958;2023-03-08T16:30:29;4.30;99.90
3678;DHT22;1855;50.934;6.958;2023-03-08T16:32:56;4.30;99.90
3678;DHT22;1855;50.934;6.958;2023-03-08T16:35:23;4.30;99.90
3678;DHT22;1855;50.934;6.958;2023-03-08T16:37:51;4.30;99.90